P.t. Monto — VMBF — position and weather

sailwx.info

Track history (hours):
 
Tides and Currents Weather Stations Pressure Air Temp Water Temp Dewpoint Dewpoint Depression Visibility Wind Speed Wind Dir Waves Ship Positions

P.t. Monto

Last reported at 2015-May-25 17:33 UTC. Time now 2015-May-25 21:38 UTC.
Position S 27°60' E 153°38'.

Length 32 m; draft 3.6 m.

Type: Tug. MMSI: 503612000.

Date/timePositionNaut miles runAvg speedWind from/ knotsBaromVisibWave heightAir tempDewpointWater temp
2015-May-25 17:33S 27°60' E 153°38'8 8.4
2015-May-25 16:33S 27°51' E 153°37'10 8.1
2015-May-25 15:17S 27°41' E 153°36'6 8.0
2015-May-25 14:33S 27°35' E 153°36'8 7.7
2015-May-25 13:34S 27°28' E 153°35'16 7.7
2015-May-25 11:27S 27°12' E 153°32'7 8.0
2015-May-25 10:32S 27°05' E 153°30'8 7.5
2015-May-25 09:30S 26°58' E 153°25'8 7.8
2015-May-25 08:30S 26°54' E 153°18'7 7.1
2015-May-25 07:32S 26°50' E 153°12'5 4.7
2015-May-25 06:28S 26°55' E 153°11'8 8.7
2015-May-25 05:33S 27°02' E 153°15'9 7.8
2015-May-25 04:24S 27°10' E 153°19'8 8.7
2015-May-25 03:31S 27°16' E 153°15'  
2015-May-17 02:13S 27°27' E 153°05'0 0.0
2015-May-17 01:08S 27°27' E 153°05'0 0.0
2015-May-17 00:28S 27°27' E 153°05'3 1.6
2015-May-16 22:29S 27°25' E 153°08'8 8.2
2015-May-16 21:33S 27°19' E 153°13'9 9.4
2015-May-16 20:33S 27°11' E 153°19'10 9.9
2015-May-16 19:33S 27°02' E 153°15'1010.4
2015-May-16 18:33S 26°52' E 153°10'  
Track history (hours):
 
Tides and Currents Weather Stations Pressure Air Temp Water Temp Dewpoint Dewpoint Depression Visibility Wind Speed Wind Dir Waves Ship Positions

P.t. Monto

Last reported at 2015-May-25 17:33 UTC. Time now 2015-May-25 21:38 UTC.
Position S 27°60' E 153°38'.

Length 32 m; draft 3.6 m.

Type: Tug. MMSI: 503612000.

Date/timePositionNaut miles runAvg speedWind from/ knotsBaromVisibWave heightAir tempDewpointWater temp
2015-May-25 17:33S 27°60' E 153°38'8 8.4
2015-May-25 16:33S 27°51' E 153°37'10 8.1
2015-May-25 15:17S 27°41' E 153°36'6 8.0
2015-May-25 14:33S 27°35' E 153°36'8 7.7
2015-May-25 13:34S 27°28' E 153°35'16 7.7
2015-May-25 11:27S 27°12' E 153°32'7 8.0
2015-May-25 10:32S 27°05' E 153°30'8 7.5
2015-May-25 09:30S 26°58' E 153°25'8 7.8
2015-May-25 08:30S 26°54' E 153°18'7 7.1
2015-May-25 07:32S 26°50' E 153°12'5 4.7
2015-May-25 06:28S 26°55' E 153°11'8 8.7
2015-May-25 05:33S 27°02' E 153°15'9 7.8
2015-May-25 04:24S 27°10' E 153°19'8 8.7
2015-May-25 03:31S 27°16' E 153°15'  
2015-May-17 02:13S 27°27' E 153°05'0 0.0
2015-May-17 01:08S 27°27' E 153°05'0 0.0
2015-May-17 00:28S 27°27' E 153°05'3 1.6
2015-May-16 22:29S 27°25' E 153°08'8 8.2
2015-May-16 21:33S 27°19' E 153°13'9 9.4
2015-May-16 20:33S 27°11' E 153°19'10 9.9
2015-May-16 19:33S 27°02' E 153°15'1010.4
2015-May-16 18:33S 26°52' E 153°10'  

Dump ship's entire track history